sensor_id;sensor_type;location;lat;lon;timestamp;P1;durP1;ratioP1;P2;durP2;ratioP2
54993;SDS011;40891;47.242;8.648;2023-02-26T00:01:13;2.43;;;1.13;;
54993;SDS011;40891;47.242;8.648;2023-02-26T00:03:40;3.00;;;1.20;;
54993;SDS011;40891;47.242;8.648;2023-02-26T00:06:06;1.40;;;1.10;;
54993;SDS011;40891;47.242;8.648;2023-02-26T00:08:31;2.23;;;1.27;;
54993;SDS011;40891;47.242;8.648;2023-02-26T00:10:57;3.33;;;1.30;;
54993;SDS011;40891;47.242;8.648;2023-02-26T00:13:25;2.27;;;1.40;;
54993;SDS011;40891;47.242;8.648;2023-02-26T00:15:53;2.13;;;1.23;;
54993;SDS011;40891;47.242;8.648;2023-02-26T00:18:22;1.90;;;1.30;;
54993;SDS011;40891;47.242;8.648;2023-02-26T00:20:48;3.37;;;1.40;;
54993;SDS011;40891;47.242;8.648;2023-02-26T00:23:14;3.63;;;1.40;;
54993;SDS011;40891;47.242;8.648;2023-02-26T00:25:39;2.37;;;1.40;;
54993;SDS011;40891;47.242;8.648;2023-02-26T00:28:06;3.60;;;1.50;;
54993;SDS011;40891;47.242;8.648;2023-02-26T00:30:33;1.83;;;1.27;;
54993;SDS011;40891;47.242;8.648;2023-02-26T00:32:59;4.30;;;1.60;;
54993;SDS011;40891;47.242;8.648;2023-02-26T00:35:25;1.90;;;1.30;;
54993;SDS011;40891;47.242;8.648;2023-02-26T00:38:09;2.67;;;1.53;;
54993;SDS011;40891;47.242;8.648;2023-02-26T00:43:20;2.57;;;1.47;;
54993;SDS011;40891;47.242;8.648;2023-02-26T00:48:28;2.73;;;1.60;;
54993;SDS011;40891;47.242;8.648;2023-02-26T00:51:20;3.60;;;1.47;;
54993;SDS011;40891;47.242;8.648;2023-02-26T00:56:23;3.60;;;1.40;;
54993;SDS011;40891;47.242;8.648;2023-02-26T00:58:48;1.80;;;1.33;;
54993;SDS011;40891;47.242;8.648;2023-02-26T01:01:13;2.07;;;1.30;;
54993;SDS011;40891;47.242;8.648;2023-02-26T01:03:39;2.73;;;1.33;;
54993;SDS011;40891;47.242;8.648;2023-02-26T01:06:08;3.00;;;1.30;;
54993;SDS011;40891;47.242;8.648;2023-02-26T01:08:43;6.00;;;1.80;;
54993;SDS011;40891;47.242;8.648;2023-02-26T01:11:17;3.57;;;1.30;;
54993;SDS011;40891;47.242;8.648;2023-02-26T01:13:43;4.20;;;1.40;;
54993;SDS011;40891;47.242;8.648;2023-02-26T01:16:10;2.37;;;1.33;;
54993;SDS011;40891;47.242;8.648;2023-02-26T01:18:43;3.10;;;1.53;;
54993;SDS011;40891;47.242;8.648;2023-02-26T01:21:23;2.67;;;1.47;;
54993;SDS011;40891;47.242;8.648;2023-02-26T01:23:55;2.93;;;1.73;;
54993;SDS011;40891;47.242;8.648;2023-02-26T01:26:22;1.67;;;1.40;;
54993;SDS011;40891;47.242;8.648;2023-02-26T01:28:52;3.13;;;1.67;;
54993;SDS011;40891;47.242;8.648;2023-02-26T01:31:24;1.70;;;1.40;;
54993;SDS011;40891;47.242;8.648;2023-02-26T01:34:20;1.43;;;1.27;;
54993;SDS011;40891;47.242;8.648;2023-02-26T01:36:52;3.83;;;1.70;;
54993;SDS011;40891;47.242;8.648;2023-02-26T01:39:39;2.67;;;1.50;;
54993;SDS011;40891;47.242;8.648;2023-02-26T01:42:22;3.77;;;1.70;;
54993;SDS011;40891;47.242;8.648;2023-02-26T01:50:16;2.77;;;1.40;;
54993;SDS011;40891;47.242;8.648;2023-02-26T01:55:17;3.13;;;1.53;;
54993;SDS011;40891;47.242;8.648;2023-02-26T01:57:45;1.60;;;1.30;;
54993;SDS011;40891;47.242;8.648;2023-02-26T02:00:11;2.67;;;1.50;;
54993;SDS011;40891;47.242;8.648;2023-02-26T02:02:37;5.57;;;1.60;;
54993;SDS011;40891;47.242;8.648;2023-02-26T02:05:03;3.00;;;1.53;;
54993;SDS011;40891;47.242;8.648;2023-02-26T02:07:43;3.43;;;1.77;;
54993;SDS011;40891;47.242;8.648;2023-02-26T02:10:08;2.93;;;1.50;;
54993;SDS011;40891;47.242;8.648;2023-02-26T02:18:03;3.30;;;1.60;;
54993;SDS011;40891;47.242;8.648;2023-02-26T02:33:49;3.53;;;1.80;;
54993;SDS011;40891;47.242;8.648;2023-02-26T02:36:30;4.97;;;1.93;;
54993;SDS011;40891;47.242;8.648;2023-02-26T02:38:56;2.83;;;1.50;;
54993;SDS011;40891;47.242;8.648;2023-02-26T02:41:29;3.27;;;1.87;;
54993;SDS011;40891;47.242;8.648;2023-02-26T02:44:02;6.03;;;2.07;;
54993;SDS011;40891;47.242;8.648;2023-02-26T02:46:31;3.57;;;1.97;;
54993;SDS011;40891;47.242;8.648;2023-02-26T02:49:10;6.37;;;2.10;;
54993;SDS011;40891;47.242;8.648;2023-02-26T02:51:44;8.20;;;1.80;;
54993;SDS011;40891;47.242;8.648;2023-02-26T02:54:21;3.10;;;1.97;;
54993;SDS011;40891;47.242;8.648;2023-02-26T02:57:01;6.10;;;1.97;;
54993;SDS011;40891;47.242;8.648;2023-02-26T03:00:03;2.43;;;1.67;;
54993;SDS011;40891;47.242;8.648;2023-02-26T03:05:13;3.50;;;1.77;;
54993;SDS011;40891;47.242;8.648;2023-02-26T03:07:42;3.53;;;2.00;;
54993;SDS011;40891;47.242;8.648;2023-02-26T03:10:12;2.30;;;1.77;;
54993;SDS011;40891;47.242;8.648;2023-02-26T03:12:38;6.10;;;2.23;;
54993;SDS011;40891;47.242;8.648;2023-02-26T03:15:03;6.70;;;2.10;;
54993;SDS011;40891;47.242;8.648;2023-02-26T03:17:31;3.37;;;1.70;;
54993;SDS011;40891;47.242;8.648;2023-02-26T03:22:46;4.83;;;1.80;;
54993;SDS011;40891;47.242;8.648;2023-02-26T03:25:30;7.47;;;2.20;;
54993;SDS011;40891;47.242;8.648;2023-02-26T03:28:08;4.53;;;1.77;;
54993;SDS011;40891;47.242;8.648;2023-02-26T03:30:51;4.93;;;2.20;;
54993;SDS011;40891;47.242;8.648;2023-02-26T03:36:58;3.43;;;1.90;;
54993;SDS011;40891;47.242;8.648;2023-02-26T03:39:08;3.77;;;2.23;;
54993;SDS011;40891;47.242;8.648;2023-02-26T03:41:53;3.47;;;2.03;;
54993;SDS011;40891;47.242;8.648;2023-02-26T03:44:26;3.17;;;2.00;;
54993;SDS011;40891;47.242;8.648;2023-02-26T03:46:57;3.00;;;1.87;;
54993;SDS011;40891;47.242;8.648;2023-02-26T03:49:28;5.07;;;2.27;;
54993;SDS011;40891;47.242;8.648;2023-02-26T03:51:58;3.23;;;1.87;;
54993;SDS011;40891;47.242;8.648;2023-02-26T03:54:26;3.43;;;2.00;;
54993;SDS011;40891;47.242;8.648;2023-02-26T03:56:55;3.03;;;2.10;;
54993;SDS011;40891;47.242;8.648;2023-02-26T03:59:20;3.80;;;2.10;;
54993;SDS011;40891;47.242;8.648;2023-02-26T04:01:53;4.27;;;1.97;;
54993;SDS011;40891;47.242;8.648;2023-02-26T04:04:28;2.17;;;1.63;;
54993;SDS011;40891;47.242;8.648;2023-02-26T04:06:58;2.93;;;2.07;;
54993;SDS011;40891;47.242;8.648;2023-02-26T04:09:25;3.60;;;2.07;;
54993;SDS011;40891;47.242;8.648;2023-02-26T04:11:51;2.63;;;1.80;;
54993;SDS011;40891;47.242;8.648;2023-02-26T04:14:18;2.63;;;1.60;;
54993;SDS011;40891;47.242;8.648;2023-02-26T04:16:44;3.87;;;1.90;;
54993;SDS011;40891;47.242;8.648;2023-02-26T04:19:09;3.10;;;2.00;;
54993;SDS011;40891;47.242;8.648;2023-02-26T04:21:35;2.87;;;1.70;;
54993;SDS011;40891;47.242;8.648;2023-02-26T04:24:01;5.30;;;2.10;;
54993;SDS011;40891;47.242;8.648;2023-02-26T04:26:26;3.80;;;1.83;;
54993;SDS011;40891;47.242;8.648;2023-02-26T04:28:51;2.87;;;1.83;;
54993;SDS011;40891;47.242;8.648;2023-02-26T04:31:16;3.27;;;2.00;;
54993;SDS011;40891;47.242;8.648;2023-02-26T04:33:42;3.10;;;2.20;;
54993;SDS011;40891;47.242;8.648;2023-02-26T04:36:08;2.20;;;1.57;;
54993;SDS011;40891;47.242;8.648;2023-02-26T04:38:34;2.90;;;2.27;;
54993;SDS011;40891;47.242;8.648;2023-02-26T04:40:59;2.70;;;1.90;;
54993;SDS011;40891;47.242;8.648;2023-02-26T04:43:25;2.13;;;1.87;;
54993;SDS011;40891;47.242;8.648;2023-02-26T04:45:50;4.23;;;2.17;;
54993;SDS011;40891;47.242;8.648;2023-02-26T04:48:16;3.27;;;1.87;;
54993;SDS011;40891;47.242;8.648;2023-02-26T04:50:41;3.20;;;1.90;;
54993;SDS011;40891;47.242;8.648;2023-02-26T04:53:07;4.10;;;2.13;;
54993;SDS011;40891;47.242;8.648;2023-02-26T04:55:33;4.87;;;2.30;;
54993;SDS011;40891;47.242;8.648;2023-02-26T04:57:59;3.23;;;2.23;;
54993;SDS011;40891;47.242;8.648;2023-02-26T05:00:25;3.40;;;2.10;;
54993;SDS011;40891;47.242;8.648;2023-02-26T05:02:50;2.00;;;1.70;;
54993;SDS011;40891;47.242;8.648;2023-02-26T05:05:16;2.77;;;2.07;;
54993;SDS011;40891;47.242;8.648;2023-02-26T05:07:42;3.80;;;2.20;;
54993;SDS011;40891;47.242;8.648;2023-02-26T05:10:07;3.77;;;2.27;;
54993;SDS011;40891;47.242;8.648;2023-02-26T05:12:33;4.03;;;2.10;;
54993;SDS011;40891;47.242;8.648;2023-02-26T05:14:59;3.13;;;2.00;;
54993;SDS011;40891;47.242;8.648;2023-02-26T05:17:24;4.17;;;2.10;;
54993;SDS011;40891;47.242;8.648;2023-02-26T05:19:50;2.93;;;2.03;;
54993;SDS011;40891;47.242;8.648;2023-02-26T05:22:15;2.40;;;2.10;;
54993;SDS011;40891;47.242;8.648;2023-02-26T05:24:41;3.83;;;1.80;;
54993;SDS011;40891;47.242;8.648;2023-02-26T05:27:07;2.97;;;1.60;;
54993;SDS011;40891;47.242;8.648;2023-02-26T05:29:33;3.00;;;1.73;;
54993;SDS011;40891;47.242;8.648;2023-02-26T05:31:58;2.70;;;1.53;;
54993;SDS011;40891;47.242;8.648;2023-02-26T05:34:23;1.70;;;1.60;;
54993;SDS011;40891;47.242;8.648;2023-02-26T05:36:49;2.67;;;1.37;;
54993;SDS011;40891;47.242;8.648;2023-02-26T05:39:14;3.43;;;1.80;;
54993;SDS011;40891;47.242;8.648;2023-02-26T05:41:40;3.83;;;1.73;;
54993;SDS011;40891;47.242;8.648;2023-02-26T05:44:05;1.97;;;1.57;;
54993;SDS011;40891;47.242;8.648;2023-02-26T05:46:32;3.13;;;1.40;;
54993;SDS011;40891;47.242;8.648;2023-02-26T05:48:57;1.63;;;1.00;;
54993;SDS011;40891;47.242;8.648;2023-02-26T05:51:23;4.33;;;1.60;;
54993;SDS011;40891;47.242;8.648;2023-02-26T05:53:48;1.90;;;1.07;;
54993;SDS011;40891;47.242;8.648;2023-02-26T05:56:13;3.57;;;1.40;;
54993;SDS011;40891;47.242;8.648;2023-02-26T05:58:39;2.13;;;1.23;;
54993;SDS011;40891;47.242;8.648;2023-02-26T06:01:05;3.90;;;1.30;;
54993;SDS011;40891;47.242;8.648;2023-02-26T06:03:30;2.23;;;1.33;;
54993;SDS011;40891;47.242;8.648;2023-02-26T06:05:56;2.30;;;1.23;;
54993;SDS011;40891;47.242;8.648;2023-02-26T06:08:21;2.23;;;1.10;;
54993;SDS011;40891;47.242;8.648;2023-02-26T06:10:46;3.07;;;1.40;;
54993;SDS011;40891;47.242;8.648;2023-02-26T06:13:15;9.23;;;1.43;;
54993;SDS011;40891;47.242;8.648;2023-02-26T06:15:40;3.43;;;1.53;;
54993;SDS011;40891;47.242;8.648;2023-02-26T06:18:06;3.23;;;1.30;;
54993;SDS011;40891;47.242;8.648;2023-02-26T06:20:32;2.33;;;1.10;;
54993;SDS011;40891;47.242;8.648;2023-02-26T06:22:57;4.70;;;1.23;;
54993;SDS011;40891;47.242;8.648;2023-02-26T06:25:22;3.23;;;1.30;;
54993;SDS011;40891;47.242;8.648;2023-02-26T06:27:47;5.60;;;1.20;;
54993;SDS011;40891;47.242;8.648;2023-02-26T06:30:13;3.23;;;1.57;;
54993;SDS011;40891;47.242;8.648;2023-02-26T06:32:38;6.37;;;1.23;;
54993;SDS011;40891;47.242;8.648;2023-02-26T06:35:04;2.80;;;1.40;;
54993;SDS011;40891;47.242;8.648;2023-02-26T06:37:30;2.23;;;0.97;;
54993;SDS011;40891;47.242;8.648;2023-02-26T06:39:55;5.43;;;1.07;;
54993;SDS011;40891;47.242;8.648;2023-02-26T06:42:21;1.37;;;0.90;;
54993;SDS011;40891;47.242;8.648;2023-02-26T06:44:46;2.30;;;1.40;;
54993;SDS011;40891;47.242;8.648;2023-02-26T06:47:12;4.00;;;1.30;;
54993;SDS011;40891;47.242;8.648;2023-02-26T06:49:37;3.43;;;1.30;;
54993;SDS011;40891;47.242;8.648;2023-02-26T06:52:03;1.73;;;1.33;;
54993;SDS011;40891;47.242;8.648;2023-02-26T06:54:28;2.50;;;1.20;;
54993;SDS011;40891;47.242;8.648;2023-02-26T06:56:53;4.40;;;1.20;;
54993;SDS011;40891;47.242;8.648;2023-02-26T06:59:21;1.10;;;0.90;;
54993;SDS011;40891;47.242;8.648;2023-02-26T07:01:47;2.63;;;1.03;;
54993;SDS011;40891;47.242;8.648;2023-02-26T07:04:12;3.23;;;1.07;;
54993;SDS011;40891;47.242;8.648;2023-02-26T07:06:38;2.53;;;1.07;;
54993;SDS011;40891;47.242;8.648;2023-02-26T07:09:03;2.13;;;1.40;;
54993;SDS011;40891;47.242;8.648;2023-02-26T07:11:28;3.77;;;1.13;;
54993;SDS011;40891;47.242;8.648;2023-02-26T07:13:54;2.30;;;1.23;;
54993;SDS011;40891;47.242;8.648;2023-02-26T07:16:19;3.63;;;1.27;;
54993;SDS011;40891;47.242;8.648;2023-02-26T07:18:45;1.97;;;1.20;;
54993;SDS011;40891;47.242;8.648;2023-02-26T07:21:10;5.67;;;1.30;;
54993;SDS011;40891;47.242;8.648;2023-02-26T07:23:35;2.40;;;1.37;;
54993;SDS011;40891;47.242;8.648;2023-02-26T07:26:01;2.23;;;1.10;;
54993;SDS011;40891;47.242;8.648;2023-02-26T07:28:26;2.03;;;1.30;;
54993;SDS011;40891;47.242;8.648;2023-02-26T07:30:55;6.70;;;1.47;;
54993;SDS011;40891;47.242;8.648;2023-02-26T07:33:21;2.20;;;1.20;;
54993;SDS011;40891;47.242;8.648;2023-02-26T07:35:47;1.13;;;1.00;;
54993;SDS011;40891;47.242;8.648;2023-02-26T07:38:12;6.83;;;1.40;;
54993;SDS011;40891;47.242;8.648;2023-02-26T07:40:38;2.17;;;1.20;;
54993;SDS011;40891;47.242;8.648;2023-02-26T07:43:03;2.37;;;1.30;;
54993;SDS011;40891;47.242;8.648;2023-02-26T07:45:28;3.27;;;1.23;;
54993;SDS011;40891;47.242;8.648;2023-02-26T07:47:54;3.33;;;1.53;;
54993;SDS011;40891;47.242;8.648;2023-02-26T07:50:19;3.07;;;1.47;;
54993;SDS011;40891;47.242;8.648;2023-02-26T07:52:45;3.70;;;1.33;;
54993;SDS011;40891;47.242;8.648;2023-02-26T07:55:11;3.27;;;1.10;;
54993;SDS011;40891;47.242;8.648;2023-02-26T07:57:37;2.13;;;1.20;;
54993;SDS011;40891;47.242;8.648;2023-02-26T08:00:02;1.73;;;1.13;;
54993;SDS011;40891;47.242;8.648;2023-02-26T08:02:29;1.87;;;1.03;;
54993;SDS011;40891;47.242;8.648;2023-02-26T08:04:54;3.40;;;1.20;;
54993;SDS011;40891;47.242;8.648;2023-02-26T08:07:20;2.50;;;1.17;;
54993;SDS011;40891;47.242;8.648;2023-02-26T08:09:46;2.23;;;1.13;;
54993;SDS011;40891;47.242;8.648;2023-02-26T08:12:11;3.47;;;1.17;;
54993;SDS011;40891;47.242;8.648;2023-02-26T08:14:36;1.90;;;1.03;;
54993;SDS011;40891;47.242;8.648;2023-02-26T08:17:02;2.93;;;1.07;;
54993;SDS011;40891;47.242;8.648;2023-02-26T08:19:27;1.37;;;0.93;;
54993;SDS011;40891;47.242;8.648;2023-02-26T08:21:52;2.00;;;0.90;;
54993;SDS011;40891;47.242;8.648;2023-02-26T08:24:19;1.67;;;0.97;;
54993;SDS011;40891;47.242;8.648;2023-02-26T08:26:45;1.53;;;0.93;;
54993;SDS011;40891;47.242;8.648;2023-02-26T08:29:11;1.53;;;0.93;;
54993;SDS011;40891;47.242;8.648;2023-02-26T08:31:36;2.87;;;1.40;;
54993;SDS011;40891;47.242;8.648;2023-02-26T08:34:02;2.83;;;1.20;;
54993;SDS011;40891;47.242;8.648;2023-02-26T08:36:28;3.77;;;1.27;;
54993;SDS011;40891;47.242;8.648;2023-02-26T08:38:53;1.70;;;1.00;;
54993;SDS011;40891;47.242;8.648;2023-02-26T08:41:18;4.00;;;0.90;;
54993;SDS011;40891;47.242;8.648;2023-02-26T08:43:44;2.93;;;0.93;;
54993;SDS011;40891;47.242;8.648;2023-02-26T08:46:09;2.37;;;1.27;;
54993;SDS011;40891;47.242;8.648;2023-02-26T08:48:34;4.33;;;1.00;;
54993;SDS011;40891;47.242;8.648;2023-02-26T08:51:00;3.23;;;1.07;;
54993;SDS011;40891;47.242;8.648;2023-02-26T08:53:25;3.50;;;1.10;;
54993;SDS011;40891;47.242;8.648;2023-02-26T08:55:51;2.60;;;1.23;;
54993;SDS011;40891;47.242;8.648;2023-02-26T08:58:17;5.83;;;1.37;;
54993;SDS011;40891;47.242;8.648;2023-02-26T09:00:44;1.97;;;1.23;;
54993;SDS011;40891;47.242;8.648;2023-02-26T09:03:10;2.47;;;1.10;;
54993;SDS011;40891;47.242;8.648;2023-02-26T09:05:35;8.57;;;1.40;;
54993;SDS011;40891;47.242;8.648;2023-02-26T09:08:01;3.23;;;1.47;;
54993;SDS011;40891;47.242;8.648;2023-02-26T09:10:26;3.03;;;1.13;;
54993;SDS011;40891;47.242;8.648;2023-02-26T09:12:52;2.17;;;1.40;;
54993;SDS011;40891;47.242;8.648;2023-02-26T09:15:17;2.20;;;1.30;;
54993;SDS011;40891;47.242;8.648;2023-02-26T09:17:43;2.03;;;1.30;;
54993;SDS011;40891;47.242;8.648;2023-02-26T09:20:09;2.43;;;1.40;;
54993;SDS011;40891;47.242;8.648;2023-02-26T09:22:35;5.30;;;1.60;;
54993;SDS011;40891;47.242;8.648;2023-02-26T09:25:01;2.37;;;1.10;;
54993;SDS011;40891;47.242;8.648;2023-02-26T09:27:27;2.90;;;1.50;;
54993;SDS011;40891;47.242;8.648;2023-02-26T09:29:52;4.57;;;1.30;;
54993;SDS011;40891;47.242;8.648;2023-02-26T09:32:18;3.27;;;1.40;;
54993;SDS011;40891;47.242;8.648;2023-02-26T09:34:44;1.80;;;1.10;;
54993;SDS011;40891;47.242;8.648;2023-02-26T09:37:09;2.83;;;1.20;;
54993;SDS011;40891;47.242;8.648;2023-02-26T09:39:34;2.07;;;1.10;;
54993;SDS011;40891;47.242;8.648;2023-02-26T09:42:07;5.13;;;1.50;;
54993;SDS011;40891;47.242;8.648;2023-02-26T09:44:44;3.63;;;1.23;;
54993;SDS011;40891;47.242;8.648;2023-02-26T09:52:32;2.27;;;1.33;;
54993;SDS011;40891;47.242;8.648;2023-02-26T09:55:25;5.67;;;1.47;;
54993;SDS011;40891;47.242;8.648;2023-02-26T10:14:01;2.60;;;1.33;;
54993;SDS011;40891;47.242;8.648;2023-02-26T10:16:36;2.23;;;1.00;;
54993;SDS011;40891;47.242;8.648;2023-02-26T10:19:06;3.83;;;1.30;;
54993;SDS011;40891;47.242;8.648;2023-02-26T10:24:14;2.00;;;1.17;;
54993;SDS011;40891;47.242;8.648;2023-02-26T10:26:47;2.57;;;1.10;;
54993;SDS011;40891;47.242;8.648;2023-02-26T10:30:24;2.73;;;1.23;;
54993;SDS011;40891;47.242;8.648;2023-02-26T10:32:49;2.53;;;1.37;;
54993;SDS011;40891;47.242;8.648;2023-02-26T10:35:23;2.53;;;1.30;;
54993;SDS011;40891;47.242;8.648;2023-02-26T10:51:35;3.40;;;1.20;;
54993;SDS011;40891;47.242;8.648;2023-02-26T10:54:13;2.57;;;0.93;;
54993;SDS011;40891;47.242;8.648;2023-02-26T10:56:43;1.07;;;0.77;;
54993;SDS011;40891;47.242;8.648;2023-02-26T10:59:08;1.93;;;0.90;;
54993;SDS011;40891;47.242;8.648;2023-02-26T11:01:34;3.33;;;1.30;;
54993;SDS011;40891;47.242;8.648;2023-02-26T11:04:02;2.83;;;1.20;;
54993;SDS011;40891;47.242;8.648;2023-02-26T11:06:48;2.50;;;1.03;;
54993;SDS011;40891;47.242;8.648;2023-02-26T11:09:24;2.10;;;1.07;;
54993;SDS011;40891;47.242;8.648;2023-02-26T11:12:03;1.43;;;1.13;;
54993;SDS011;40891;47.242;8.648;2023-02-26T11:14:29;2.70;;;1.40;;
54993;SDS011;40891;47.242;8.648;2023-02-26T11:16:57;2.53;;;1.00;;
54993;SDS011;40891;47.242;8.648;2023-02-26T11:19:28;1.30;;;1.03;;
54993;SDS011;40891;47.242;8.648;2023-02-26T11:21:57;6.20;;;1.50;;
54993;SDS011;40891;47.242;8.648;2023-02-26T11:27:06;1.17;;;1.00;;
54993;SDS011;40891;47.242;8.648;2023-02-26T11:29:37;2.83;;;1.20;;
54993;SDS011;40891;47.242;8.648;2023-02-26T11:32:05;1.53;;;1.20;;
54993;SDS011;40891;47.242;8.648;2023-02-26T11:34:39;1.60;;;0.90;;
54993;SDS011;40891;47.242;8.648;2023-02-26T11:37:12;1.37;;;1.00;;
54993;SDS011;40891;47.242;8.648;2023-02-26T11:39:46;2.00;;;1.20;;
54993;SDS011;40891;47.242;8.648;2023-02-26T11:42:18;2.10;;;1.20;;
54993;SDS011;40891;47.242;8.648;2023-02-26T11:44:43;1.93;;;1.00;;
54993;SDS011;40891;47.242;8.648;2023-02-26T11:47:20;4.37;;;1.37;;
54993;SDS011;40891;47.242;8.648;2023-02-26T11:49:52;3.90;;;1.40;;
54993;SDS011;40891;47.242;8.648;2023-02-26T11:52:32;2.17;;;1.20;;
54993;SDS011;40891;47.242;8.648;2023-02-26T11:55:02;1.47;;;1.10;;
54993;SDS011;40891;47.242;8.648;2023-02-26T11:57:30;1.93;;;1.07;;
54993;SDS011;40891;47.242;8.648;2023-02-26T11:59:57;2.00;;;1.07;;
54993;SDS011;40891;47.242;8.648;2023-02-26T12:02:25;1.63;;;1.20;;
54993;SDS011;40891;47.242;8.648;2023-02-26T12:04:56;2.00;;;1.40;;
54993;SDS011;40891;47.242;8.648;2023-02-26T12:07:25;2.60;;;1.20;;
54993;SDS011;40891;47.242;8.648;2023-02-26T12:09:51;1.43;;;1.10;;
54993;SDS011;40891;47.242;8.648;2023-02-26T12:15:34;1.60;;;0.90;;
54993;SDS011;40891;47.242;8.648;2023-02-26T12:18:31;3.03;;;1.37;;
54993;SDS011;40891;47.242;8.648;2023-02-26T12:21:15;5.63;;;1.53;;
54993;SDS011;40891;47.242;8.648;2023-02-26T12:23:57;1.73;;;1.10;;
54993;SDS011;40891;47.242;8.648;2023-02-26T12:26:32;1.93;;;1.20;;
54993;SDS011;40891;47.242;8.648;2023-02-26T12:29:06;4.83;;;1.20;;
54993;SDS011;40891;47.242;8.648;2023-02-26T12:43:06;1.57;;;1.13;;
54993;SDS011;40891;47.242;8.648;2023-02-26T12:45:44;1.87;;;1.00;;
54993;SDS011;40891;47.242;8.648;2023-02-26T12:51:32;1.93;;;1.07;;
54993;SDS011;40891;47.242;8.648;2023-02-26T13:00:26;1.93;;;1.00;;
54993;SDS011;40891;47.242;8.648;2023-02-26T13:06:10;2.37;;;1.40;;
54993;SDS011;40891;47.242;8.648;2023-02-26T13:12:00;4.17;;;1.17;;
54993;SDS011;40891;47.242;8.648;2023-02-26T13:17:25;3.27;;;1.23;;
54993;SDS011;40891;47.242;8.648;2023-02-26T13:19:58;3.13;;;1.07;;
54993;SDS011;40891;47.242;8.648;2023-02-26T13:22:34;5.37;;;1.27;;
54993;SDS011;40891;47.242;8.648;2023-02-26T13:25:05;2.40;;;1.20;;
54993;SDS011;40891;47.242;8.648;2023-02-26T13:27:42;2.60;;;1.00;;
54993;SDS011;40891;47.242;8.648;2023-02-26T13:32:52;1.60;;;1.00;;
54993;SDS011;40891;47.242;8.648;2023-02-26T13:35:33;2.20;;;1.03;;
54993;SDS011;40891;47.242;8.648;2023-02-26T13:38:04;1.30;;;1.20;;
54993;SDS011;40891;47.242;8.648;2023-02-26T13:40:42;1.30;;;1.00;;
54993;SDS011;40891;47.242;8.648;2023-02-26T13:43:18;1.43;;;1.10;;
54993;SDS011;40891;47.242;8.648;2023-02-26T13:49:01;1.53;;;0.90;;
54993;SDS011;40891;47.242;8.648;2023-02-26T13:51:40;1.70;;;1.07;;
54993;SDS011;40891;47.242;8.648;2023-02-26T13:54:27;4.30;;;1.00;;
54993;SDS011;40891;47.242;8.648;2023-02-26T13:57:08;2.40;;;1.30;;
54993;SDS011;40891;47.242;8.648;2023-02-26T13:59:35;1.53;;;1.17;;
54993;SDS011;40891;47.242;8.648;2023-02-26T14:04:51;3.20;;;1.40;;
54993;SDS011;40891;47.242;8.648;2023-02-26T14:10:14;1.67;;;1.17;;
54993;SDS011;40891;47.242;8.648;2023-02-26T14:24:03;2.13;;;1.10;;
54993;SDS011;40891;47.242;8.648;2023-02-26T14:26:37;2.07;;;1.20;;
54993;SDS011;40891;47.242;8.648;2023-02-26T14:31:46;2.20;;;1.10;;
54993;SDS011;40891;47.242;8.648;2023-02-26T14:34:15;2.87;;;1.20;;
54993;SDS011;40891;47.242;8.648;2023-02-26T14:36:51;2.27;;;1.20;;
54993;SDS011;40891;47.242;8.648;2023-02-26T14:39:26;2.43;;;0.90;;
54993;SDS011;40891;47.242;8.648;2023-02-26T14:42:00;1.50;;;1.20;;
54993;SDS011;40891;47.242;8.648;2023-02-26T14:44:42;2.20;;;1.17;;
54993;SDS011;40891;47.242;8.648;2023-02-26T14:47:12;1.50;;;1.33;;
54993;SDS011;40891;47.242;8.648;2023-02-26T14:49:43;1.80;;;0.90;;
54993;SDS011;40891;47.242;8.648;2023-02-26T14:52:27;2.00;;;1.10;;
54993;SDS011;40891;47.242;8.648;2023-02-26T15:09:57;1.73;;;0.90;;
54993;SDS011;40891;47.242;8.648;2023-02-26T15:15:59;1.93;;;1.17;;
54993;SDS011;40891;47.242;8.648;2023-02-26T15:18:41;1.33;;;1.03;;
54993;SDS011;40891;47.242;8.648;2023-02-26T15:24:21;1.67;;;1.20;;
54993;SDS011;40891;47.242;8.648;2023-02-26T15:26:54;2.50;;;1.17;;
54993;SDS011;40891;47.242;8.648;2023-02-26T15:29:28;3.10;;;1.67;;
54993;SDS011;40891;47.242;8.648;2023-02-26T15:31:56;2.67;;;1.20;;
54993;SDS011;40891;47.242;8.648;2023-02-26T15:34:25;2.00;;;1.00;;
54993;SDS011;40891;47.242;8.648;2023-02-26T15:36:51;1.80;;;1.03;;
54993;SDS011;40891;47.242;8.648;2023-02-26T15:39:18;1.37;;;1.27;;
54993;SDS011;40891;47.242;8.648;2023-02-26T15:41:47;1.00;;;0.90;;
54993;SDS011;40891;47.242;8.648;2023-02-26T15:44:24;1.63;;;1.00;;
54993;SDS011;40891;47.242;8.648;2023-02-26T15:46:57;1.57;;;1.10;;
54993;SDS011;40891;47.242;8.648;2023-02-26T15:49:32;1.37;;;1.00;;
54993;SDS011;40891;47.242;8.648;2023-02-26T15:52:01;1.60;;;1.20;;
54993;SDS011;40891;47.242;8.648;2023-02-26T15:54:39;1.03;;;0.90;;
54993;SDS011;40891;47.242;8.648;2023-02-26T15:57:07;1.00;;;0.90;;
54993;SDS011;40891;47.242;8.648;2023-02-26T15:59:34;1.20;;;1.00;;
54993;SDS011;40891;47.242;8.648;2023-02-26T16:02:48;2.10;;;1.10;;
54993;SDS011;40891;47.242;8.648;2023-02-26T16:04:55;2.00;;;1.00;;
54993;SDS011;40891;47.242;8.648;2023-02-26T16:07:21;3.80;;;1.17;;
54993;SDS011;40891;47.242;8.648;2023-02-26T16:09:51;1.40;;;1.10;;
54993;SDS011;40891;47.242;8.648;2023-02-26T16:12:19;2.80;;;1.17;;
54993;SDS011;40891;47.242;8.648;2023-02-26T16:14:51;1.80;;;1.03;;
54993;SDS011;40891;47.242;8.648;2023-02-26T16:17:28;1.53;;;1.13;;
54993;SDS011;40891;47.242;8.648;2023-02-26T16:19:56;1.13;;;0.97;;
54993;SDS011;40891;47.242;8.648;2023-02-26T16:22:34;4.10;;;1.10;;
54993;SDS011;40891;47.242;8.648;2023-02-26T16:25:06;2.07;;;1.20;;
54993;SDS011;40891;47.242;8.648;2023-02-26T16:27:39;3.57;;;1.33;;
54993;SDS011;40891;47.242;8.648;2023-02-26T16:30:07;1.30;;;1.00;;
54993;SDS011;40891;47.242;8.648;2023-02-26T16:32:39;1.53;;;1.13;;
54993;SDS011;40891;47.242;8.648;2023-02-26T16:35:09;2.03;;;1.30;;
54993;SDS011;40891;47.242;8.648;2023-02-26T16:37:42;1.33;;;1.10;;
54993;SDS011;40891;47.242;8.648;2023-02-26T16:42:36;1.40;;;1.00;;
54993;SDS011;40891;47.242;8.648;2023-02-26T16:47:49;1.87;;;1.40;;
54993;SDS011;40891;47.242;8.648;2023-02-26T16:50:20;2.30;;;1.20;;
54993;SDS011;40891;47.242;8.648;2023-02-26T16:52:56;1.83;;;1.27;;
54993;SDS011;40891;47.242;8.648;2023-02-26T16:55:25;1.60;;;1.30;;
54993;SDS011;40891;47.242;8.648;2023-02-26T16:57:53;1.20;;;1.00;;
54993;SDS011;40891;47.242;8.648;2023-02-26T17:00:23;1.90;;;1.40;;
54993;SDS011;40891;47.242;8.648;2023-02-26T17:03:17;4.13;;;1.60;;
54993;SDS011;40891;47.242;8.648;2023-02-26T17:05:48;1.40;;;1.20;;
54993;SDS011;40891;47.242;8.648;2023-02-26T17:08:19;2.03;;;1.37;;
54993;SDS011;40891;47.242;8.648;2023-02-26T17:10:52;2.27;;;1.10;;
54993;SDS011;40891;47.242;8.648;2023-02-26T17:15:56;4.27;;;1.70;;
54993;SDS011;40891;47.242;8.648;2023-02-26T17:18:23;1.57;;;1.10;;
54993;SDS011;40891;47.242;8.648;2023-02-26T17:20:49;2.33;;;1.00;;
54993;SDS011;40891;47.242;8.648;2023-02-26T17:23:15;1.67;;;1.10;;
54993;SDS011;40891;47.242;8.648;2023-02-26T17:25:46;1.57;;;1.20;;
54993;SDS011;40891;47.242;8.648;2023-02-26T17:28:18;3.03;;;1.40;;
54993;SDS011;40891;47.242;8.648;2023-02-26T17:30:46;1.27;;;1.10;;
54993;SDS011;40891;47.242;8.648;2023-02-26T17:33:12;1.17;;;1.00;;
54993;SDS011;40891;47.242;8.648;2023-02-26T17:35:38;1.40;;;1.10;;
54993;SDS011;40891;47.242;8.648;2023-02-26T17:38:04;1.40;;;1.27;;
54993;SDS011;40891;47.242;8.648;2023-02-26T17:40:32;2.53;;;1.40;;
54993;SDS011;40891;47.242;8.648;2023-02-26T17:43:00;1.57;;;1.40;;
54993;SDS011;40891;47.242;8.648;2023-02-26T17:45:28;1.53;;;1.07;;
54993;SDS011;40891;47.242;8.648;2023-02-26T17:47:54;1.67;;;1.10;;
54993;SDS011;40891;47.242;8.648;2023-02-26T17:53:20;2.13;;;1.13;;
54993;SDS011;40891;47.242;8.648;2023-02-26T17:55:46;2.17;;;1.30;;
54993;SDS011;40891;47.242;8.648;2023-02-26T17:58:18;3.20;;;1.50;;